RJAA/NRT METAR and TAF weather

Enter ICAO airport designator
Station Type Date Time Source
RJAA METAR 2018/12/10 12:30 UTC NOAA

RJAA 101230Z 34006KT 9999 FEW030 03/M02 Q1029 NOSIG RMK 1CU030 A3039


Station Type Date Time Source
RJAA Decoded METAR 2018/12/10 12:30 UTC NOAA

New Tokyo Inter-National Airport, Japan (RJAA) 35-46N 140-23E 44M
Dec 10, 2018 - 07:30 AM EST / 2018.12.10 1230 UTC
Wind: from the NNW (340 degrees) at 7 MPH (6 KT):0
Visibility: greater than 7 mile(s):0
Sky conditions: mostly clear
Temperature: 37 F (3 C)
Dew Point: 28 F (-2 C)
Relative Humidity: 69%
Pressure (altimeter): 30.39 in. Hg (1029 hPa)
ob: RJAA 101230Z 34006KT 9999 FEW030 03/M02 Q1029 NOSIG RMK 1CU030 A3039
cycle: 12

Station Type Date Time Source
RJAA TAF 2018/12/10 12:09 UTC NOAA

TAF TAF RJAA 101105Z 1012/1118 36006KT 9999 FEW030
BECMG 1112/1115 4500 -RA BR FEW005 BKN009


Example: see airport list